Salisbury Beach, Massachusetts
Current Conditions -  °F | °C
As of 10:54 AM on Wednesday 26 Nov 2014 (Local Time) from KLWM Reporting Station
Moderate Rain Moderate Rain  
Wind Chill: 33°   Ceiling: 2400
Heat Index: 40°   Visibility: 6mi
Dew Point: 32°   Wind: 10mph
Humidity: 73%   Direction: 40°NE
Pressure: 30.18"   Gusts: NA
Location:  42.8501°N, 70.8633°W
Report Text: KLWM 261554Z 04009KT 6SM RA BKN024 OVC029 04/00 A3018 RMK AO2 RAB25 SLP220 P0001 T00440000
Loading
Personal Weather Stations






























Interactive Weather Map New forecast layout! Learn more

10-Day Weather Forecast

Advertisements
Track Severe Weather on mobile